Latest Weather Observations for McCluer Island

IDD60801

Issued at 8:31 pm CST Friday 6 May 2016 (issued every 30 minutes, with the page automatically refreshed every 10 minutes)

About weather observations | Map of weather stations | Latest weather observations for NT | Other Formats
Station Details ID: 014274 Name: MCCLUER ISLAND Lat: -11.05 Lon: 132.98 Height: 1.4 m
Data from the previous 72 hours. | See also: Recent months at McCluer Island
Date/Time
CST
Temp
°C
App
Temp
°C
Dew
Point
Rel
Hum
%
Delta-T
°C
Wind Press
QNH
hPa
Press
MSL
hPa
Rain
since 9 am
mm
Dir
 
Spd
km/h
Gust
km/h
Spd
kts
Gust
kts
06/08:30pm 29.8 30.2 24.4 73 3.8 ENE 30 33 16 18 1009.4 - 0.0
06/08:00pm 29.9 31.2 25.2 76 3.3 E 28 33 15 18 1009.1 - 0.0
06/07:30pm 29.7 31.0 25.2 77 3.2 ENE 28 32 15 17 1008.7 - 0.0
06/07:00pm 29.7 31.1 25.4 78 3.0 E 28 32 15 17 1008.3 - 0.0
06/06:30pm 29.7 31.3 25.7 79 2.8 E 28 33 15 18 1008.2 - 0.0
06/06:00pm 29.6 31.1 25.6 79 2.8 E 28 32 15 17 1008.0 1008.0 0.0
06/05:30pm 29.6 30.0 25.1 77 3.2 E 32 39 17 21 1007.8 - 0.0
06/05:00pm 30.2 31.7 25.0 73 3.7 E 26 30 14 16 1007.7 - 0.0
06/04:30pm 30.0 31.3 25.3 76 3.3 E 28 33 15 18 1007.5 - 0.0
06/04:00pm 29.6 29.7 24.5 74 3.6 E 32 35 17 19 1007.7 - 0.0
06/03:30pm 30.0 31.5 25.5 77 3.2 ESE 28 35 15 19 1008.0 - 0.0
06/03:00pm 30.7 32.3 25.8 75 3.5 E 28 35 15 19 1008.1 1008.1 0.0
06/02:30pm 30.8 31.9 25.6 74 3.7 E 30 33 16 18 1008.3 - 0.0
06/02:00pm 30.7 32.4 25.3 73 3.8 E 26 33 14 18 1008.5 - 0.0
06/01:30pm 30.2 31.3 25.0 73 3.7 E 28 33 15 18 1008.7 - 0.0
06/01:00pm 30.5 31.7 25.1 73 3.8 E 28 33 15 18 1009.0 - 0.0
06/12:30pm 30.8 32.3 25.6 74 3.7 E 28 35 15 19 1009.5 - 0.0
06/12:00pm 30.4 31.5 25.5 75 3.5 E 30 33 16 18 1010.0 1010.0 0.0
06/11:30am 30.0 30.8 24.4 72 3.9 E 28 32 15 17 1010.3 - 0.0
06/11:00am 30.0 30.4 24.4 72 3.9 E 30 33 16 18 1010.5 - 0.0
06/10:30am 30.2 31.5 25.3 75 3.5 E 28 32 15 17 1010.7 - 0.0
06/10:00am 30.3 31.4 24.9 73 3.8 E 28 32 15 17 1010.8 - 0.0
06/09:30am 29.7 30.2 24.6 74 3.6 E 30 33 16 18 1010.8 - 0.0
06/09:00am 29.7 29.8 23.9 71 4.0 E 30 35 16 19 1010.4 1010.4 0.0
06/08:30am 29.3 29.9 24.2 74 3.5 E 28 33 15 18 1010.4 - 0.0
06/08:00am 29.4 29.8 23.8 72 3.9 E 28 33 15 18 1010.1 - 0.0
06/07:30am 29.1 29.5 23.8 73 3.7 E 28 32 15 17 1010.0 - 0.0
06/07:00am 28.8 29.7 23.9 75 3.4 E 26 32 14 17 1009.6 - 0.0
06/06:30am 28.5 29.0 23.9 76 3.2 E 28 33 15 18 1009.4 - 0.0
06/06:00am 28.2 28.8 24.2 79 2.8 ESE 28 32 15 17 1009.4 1009.4 0.0
06/05:30am 27.5 28.0 23.3 78 2.9 ESE 26 33 14 18 1009.2 - 0.0
06/05:00am 27.3 27.9 23.5 80 2.6 SE 26 32 14 17 1009.2 - 0.0
06/04:30am 27.5 27.2 23.3 78 2.9 ESE 30 43 16 23 1009.1 - 0.0
06/04:00am 29.3 30.1 24.4 75 3.4 E 28 32 15 17 1009.0 - 0.0
06/03:30am 29.5 29.9 24.4 74 3.6 E 30 33 16 18 1009.0 - 0.0
06/03:00am 29.3 30.1 24.4 75 3.4 E 28 33 15 18 1009.1 1009.1 0.0
06/02:30am 29.2 30.0 24.5 76 3.3 E 28 33 15 18 1009.2 - 0.0
06/02:00am 29.2 29.9 24.3 75 3.4 E 28 33 15 18 1009.5 - 0.0
06/01:30am 29.3 29.8 24.6 76 3.3 E 30 33 16 18 1009.7 - 0.0
06/01:00am 29.2 29.8 24.7 77 3.1 E 30 35 16 19 1009.9 - 0.0
06/12:30am 29.2 29.6 24.5 76 3.3 E 30 35 16 19 1010.1 - 0.0
06/12:00am 29.2 30.2 24.7 77 3.1 E 28 32 15 17 1010.1 1010.1 0.0
 
Date/Time
CST
Temp
°C
App
Temp
°C
Dew
Point
Rel
Hum
%
Delta-T
°C
Wind Press
QNH
hPa
Press
MSL
hPa
Rain
since 9 am
mm
Dir
 
Spd
km/h
Gust
km/h
Spd
kts
Gust
kts
05/11:30pm 29.1 30.0 24.6 76 3.1 E 28 32 15 17 1010.1 - 0.0
05/11:00pm 29.1 29.5 24.4 76 3.3 E 30 32 16 17 1009.7 - 0.0
05/10:30pm 29.3 30.2 24.6 76 3.3 E 28 32 15 17 1009.7 - 0.0
05/10:00pm 29.1 30.5 24.2 75 3.4 E 24 30 13 16 1009.7 - 0.0
05/09:30pm 29.2 30.3 24.3 75 3.4 E 26 30 14 16 1009.8 - 0.0
05/09:00pm 29.5 30.3 24.4 74 3.6 E 28 30 15 16 1009.8 1009.8 0.0
05/08:30pm 29.5 30.8 24.6 75 3.4 E 26 32 14 17 1009.7 - 0.0
05/08:00pm 29.7 30.0 24.3 73 3.8 E 30 33 16 18 1009.4 - 0.0
05/07:30pm 29.6 30.2 24.2 73 3.8 E 28 33 15 18 1009.2 - 0.0
05/07:00pm 29.6 29.7 24.0 72 3.9 E 30 33 16 18 1008.9 - 0.0
05/06:30pm 29.9 30.7 24.5 73 3.8 E 28 33 15 18 1008.7 - 0.0
05/06:00pm 30.0 30.4 24.4 72 3.9 E 30 35 16 19 1008.8 1008.8 0.0
05/05:30pm 30.2 29.8 24.1 70 4.2 E 33 37 18 20 1008.6 - 0.0
05/05:00pm 30.3 30.7 24.4 70 4.1 E 30 35 16 19 1008.7 - 0.0
05/04:30pm 30.2 30.8 24.1 70 4.2 E 28 33 15 18 1008.6 - 0.0
05/04:00pm 30.2 30.0 24.4 71 4.0 E 33 37 18 20 1008.7 - 0.0
05/03:30pm 30.3 29.9 24.0 69 4.4 E 33 39 18 21 1008.8 - 0.0
05/03:00pm 30.6 31.0 25.0 72 3.9 E 32 35 17 19 1008.9 1008.9 0.0
05/02:30pm 30.4 30.5 24.5 70 4.1 E 32 37 17 20 1009.2 - 0.0
05/02:00pm 30.6 31.0 25.0 72 3.9 E 32 39 17 21 1009.4 - 0.0
05/01:30pm 30.5 30.9 25.1 73 3.8 E 32 37 17 20 1009.9 - 0.0
05/01:00pm 30.6 31.4 25.0 72 3.9 E 30 37 16 20 1010.3 - 0.0
05/12:30pm 30.5 30.9 25.1 73 3.8 E 32 35 17 19 1010.8 - 0.0
05/12:00pm 30.7 31.8 25.5 74 3.7 E 30 33 16 18 1011.1 1011.1 0.0
05/11:30am 30.8 31.8 25.4 73 3.8 E 30 35 16 19 1011.5 - 0.0
05/11:00am 30.2 30.3 24.6 72 3.9 E 32 39 17 21 1011.8 - 0.0
05/10:30am 29.9 31.0 25.0 75 3.4 ESE 28 33 15 18 1011.9 - 0.0
05/10:00am 30.0 30.7 24.9 74 3.6 E 30 33 16 18 1011.9 - 0.0
05/09:30am 29.8 31.5 25.3 77 3.2 ESE 26 33 14 18 1011.7 - 0.0
05/09:00am 29.5 31.3 25.5 79 2.8 ESE 26 30 14 16 1011.6 1011.6 0.2
05/08:30am 29.4 31.3 25.6 80 2.7 ESE 26 32 14 17 1011.4 - 0.2
05/08:00am 29.3 31.4 25.3 79 2.8 ESE 24 28 13 15 1011.3 - 0.2
05/07:30am 29.4 30.4 24.7 76 3.3 ESE 28 33 15 18 1010.8 - 0.2
05/07:00am 28.3 27.4 23.2 74 3.5 E 33 48 18 26 1010.6 - 0.2
05/06:52am 28.2 26.0 23.6 76 3.2 E 41 50 22 27 1010.5 - 0.2
05/06:40am 28.3 27.4 24.5 80 2.6 ESE 37 41 20 22 1010.5 - 0.2
05/06:30am 28.2 31.2 24.6 81 2.5 SE 17 20 9 11 1010.5 - 0.2
05/06:00am 28.7 30.7 24.0 76 3.3 ESE 20 28 11 15 1010.2 1010.2 0.2
05/05:30am 28.7 29.8 24.9 80 2.7 E 28 30 15 16 1009.8 - 0.2
05/05:00am 28.6 30.3 24.6 79 2.8 E 24 32 13 17 1009.8 - 0.2
05/04:30am 29.0 31.5 25.4 81 2.5 E 22 26 12 14 1009.7 - 0.2
05/04:00am 28.8 30.8 25.2 81 2.5 E 24 28 13 15 1009.9 - 0.2
05/03:30am 29.5 32.0 25.9 81 2.6 E 24 28 13 15 1010.0 - 0.2
05/03:00am 29.1 30.2 24.4 76 3.3 E 26 30 14 16 1010.1 1010.1 0.2
05/02:30am 29.2 30.4 24.5 76 3.3 E 26 30 14 16 1010.3 - 0.2
05/02:00am 29.2 31.2 24.5 76 3.3 E 22 26 12 14 1010.7 - 0.2
05/01:30am 29.4 30.2 24.5 75 3.4 E 28 32 15 17 1010.9 - 0.2
05/01:00am 29.5 30.9 24.8 76 3.3 E 26 30 14 16 1011.4 - 0.2
05/12:30am 29.5 31.4 25.0 77 3.2 E 24 28 13 15 1011.4 - 0.2
05/12:00am 29.4 31.5 24.7 76 3.3 E 22 26 12 14 1011.7 1011.7 0.2
 
Date/Time
CST
Temp
°C
App
Temp
°C
Dew
Point
Rel
Hum
%
Delta-T
°C
Wind Press
QNH
hPa
Press
MSL
hPa
Rain
since 9 am
mm
Dir
 
Spd
km/h
Gust
km/h
Spd
kts
Gust
kts
04/11:30pm 29.5 31.8 25.0 77 3.2 E 22 26 12 14 1012.0 - 0.2
04/11:00pm 29.5 31.5 24.6 75 3.4 E 22 26 12 14 1012.0 - 0.2
04/10:30pm 29.7 32.5 25.2 77 3.2 E 20 24 11 13 1012.2 - 0.2
04/10:00pm 29.5 32.2 24.8 76 3.3 E 19 20 10 11 1012.3 - 0.2
04/09:30pm 29.6 32.2 24.9 76 3.3 E 20 22 11 12 1012.2 - 0.2
04/09:00pm 29.7 32.4 25.0 76 3.3 E 20 24 11 13 1011.8 1011.8 0.2
04/08:30pm 29.8 32.5 25.1 76 3.3 ENE 20 22 11 12 1011.5 - 0.2
04/08:00pm 29.7 32.4 24.8 75 3.4 ENE 19 22 10 12 1010.9 - 0.2
04/07:30pm 29.6 31.7 24.7 75 3.4 E 22 26 12 14 1010.6 - 0.2
04/07:00pm 29.8 31.9 25.3 77 3.2 E 24 28 13 15 1010.1 - 0.2
04/06:30pm 29.6 30.9 24.7 75 3.4 E 26 28 14 15 1009.9 - 0.2
04/06:00pm 29.7 31.1 24.8 75 3.4 E 26 30 14 16 1009.5 1009.5 0.2
04/05:30pm 29.9 31.7 25.4 77 3.2 E 26 32 14 17 1009.3 - 0.2
04/05:00pm 29.8 30.8 24.7 74 3.6 E 28 33 15 18 1009.0 - 0.2
04/04:30pm 29.9 30.3 25.0 75 3.4 E 32 37 17 20 1008.7 - 0.2
04/04:00pm 29.9 30.7 25.0 75 3.4 E 30 33 16 18 1008.5 - 0.2
04/03:30pm 30.1 30.3 24.7 73 3.8 E 32 35 17 19 1008.5 - 0.2
04/03:00pm 30.2 31.0 25.0 73 3.7 E 30 33 16 18 1008.7 1008.7 0.2
04/02:30pm 30.2 30.6 25.0 73 3.7 E 32 35 17 19 1009.2 - 0.2
04/02:00pm 30.3 30.7 25.1 73 3.7 E 32 37 17 20 1009.4 - 0.2
04/01:30pm 30.1 30.5 25.4 76 3.3 E 33 37 18 20 1009.8 - 0.2
04/01:00pm 30.3 30.9 25.6 76 3.3 E 33 39 18 21 1010.2 - 0.2
04/12:30pm 30.4 30.7 25.2 74 3.7 E 33 39 18 21 1010.6 - 0.2
04/12:00pm 30.6 30.6 24.7 71 4.1 E 33 41 18 22 1011.0 1011.0 0.2
04/11:30am 30.5 31.1 25.3 74 3.7 E 32 37 17 20 1011.5 - 0.2
04/11:00am 30.4 31.0 25.7 76 3.3 E 33 39 18 21 1011.7 - 0.2
04/10:30am 29.9 30.3 25.0 75 3.4 E 32 39 17 21 1012.0 - 0.2
04/10:00am 30.1 30.2 24.9 73 3.6 E 33 41 18 22 1012.1 - 0.2
04/09:30am 28.2 27.0 24.6 81 2.5 E 39 46 21 25 1012.2 - 0.0
04/09:00am 29.4 30.3 25.2 78 3.0 E 30 35 16 19 1012.0 1012.0 5.8
04/08:30am 29.6 30.6 24.7 75 3.4 E 28 33 15 18 1011.9 - 5.8
04/08:00am 28.0 28.8 24.4 81 2.5 ENE 28 35 15 19 1011.8 - 5.8
04/07:30am 29.1 31.1 25.1 79 2.8 E 24 28 13 15 1011.4 - 3.8
04/07:00am 29.1 29.8 24.9 78 2.9 E 30 33 16 18 1010.9 - 3.8
04/06:30am 26.6 29.4 24.3 87 1.6 ESE 17 20 9 11 1010.6 - 3.8
04/06:00am 25.4 28.9 23.5 89 1.3 ESE 11 15 6 8 1010.5 1010.5 3.8
04/05:47am 25.5 28.3 23.6 89 1.3 SE 15 19 8 10 1010.4 - 3.8
04/05:30am 26.6 24.2 23.9 85 1.9 E 43 63 23 34 1010.4 - 2.2
04/05:23am 28.8 29.9 25.0 80 2.7 E 28 48 15 26 1010.0 - 0.0
04/05:00am 29.3 31.4 25.3 79 2.8 E 24 28 13 15 1009.9 - 0.0
04/04:30am 29.1 30.7 25.1 79 2.8 E 26 30 14 16 1009.9 - 0.0
04/04:00am 29.3 31.1 25.5 80 2.7 E 26 32 14 17 1010.0 - 0.0
04/03:30am 29.2 31.2 25.2 79 2.8 E 24 28 13 15 1010.1 - 0.0
04/03:00am 29.2 31.0 25.4 80 2.7 E 26 30 14 16 1010.1 1010.1 0.0
04/02:30am 29.3 31.1 25.5 80 2.7 E 26 30 14 16 1010.2 - 0.0
04/02:00am 29.3 31.5 25.5 80 2.7 E 24 28 13 15 1010.5 - 0.0
04/01:30am 29.1 30.4 24.6 76 3.1 E 26 30 14 16 1010.6 - 0.0
04/01:00am 29.6 32.0 26.4 83 2.3 E 26 30 14 16 1010.8 - 0.0
04/12:30am 29.3 31.3 25.7 81 2.5 E 26 30 14 16 1011.2 - 0.0
04/12:00am 29.2 31.0 25.4 80 2.7 E 26 32 14 17 1011.3 1011.3 0.0
 
Date/Time
CST
Temp
°C
App
Temp
°C
Dew
Point
Rel
Hum
%
Delta-T
°C
Wind Press
QNH
hPa
Press
MSL
hPa
Rain
since 9 am
mm
Dir
 
Spd
km/h
Gust
km/h
Spd
kts
Gust
kts
03/11:30pm 29.1 30.6 25.5 81 2.5 E 28 32 15 17 1011.3 - 0.0
03/11:00pm 29.4 31.6 26.0 82 2.4 E 26 30 14 16 1011.4 - 0.0
03/10:30pm 29.2 31.2 25.2 79 2.8 E 24 28 13 15 1011.5 - 0.0
03/10:00pm 29.1 31.2 25.3 80 2.7 E 24 28 13 15 1011.5 - 0.0
03/09:30pm 29.1 31.1 25.1 79 2.8 E 24 30 13 16 1011.6 - 0.0
03/09:00pm 29.0 31.0 25.2 80 2.7 E 24 28 13 15 1011.5 1011.5 0.0

Other Formats:

Comma delimited format used in spreadsheet applications
http://www.bom.gov.au/fwo/IDD60801/IDD60801.94135.axf

JavaScript Object Notation format (JSON) in row-major order
http://www.bom.gov.au/fwo/IDD60801/IDD60801.94135.json